19 de mayo de 2022

Hora Código Tiempo Temp. Visibilidad Nubes Viento METAR/SPECI
20:00
V
24 °C 10 km+ - 130°   130° 15 kt METAR LFBO 191800Z AUTO 13015KT 9999 FEW010 24/17 Q1019 TEMPO 14015G25KT
19:30
I
24 °C 4,6 km - 140°   140° 18 kt METAR LFBO 191730Z AUTO 14018KT 9999 4600 NSC 24/17 Q1019 TEMPO 14015G25KT
19:00
V
25 °C 8 km - 140°   140° 18 kt METAR LFBO 191700Z AUTO 14018KT 8000 NSC 25/17 Q1019 TEMPO 14015G25KT
18:30
V
26 °C 8 km - 140°   140° 17 kt METAR LFBO 191630Z AUTO 14017KT 8000 NSC 26/17 Q1019 TEMPO 14015G25KT
18:00
I
26 °C 3,6 km - 150°   150° 18 kt METAR LFBO 191600Z AUTO 15018KT 9000 3600 FEW009 26/17 Q1019 TEMPO 14015G25KT
17:30
I
27 °C 3,4 km - 150°   150° 18 kt METAR LFBO 191530Z AUTO 15018KT 9000 3400 FEW011 27/17 Q1019 TEMPO 14015G25KT
17:00
I
27 °C 3,1 km - 140°   140° 18 kt METAR LFBO 191500Z AUTO 14018KT 8000 3100 NSC 27/17 Q1019 TEMPO 14015G25KT
16:30
I
28 °C 3,3 km - 140°   140° 18 kt METAR LFBO 191430Z AUTO 14018KT 110V170 8000 3300 NSC 28/18 Q1019 TEMPO 14015G25KT
16:00
I
28 °C 3,1 km - 140°   140° 18 kt METAR LFBO 191400Z AUTO 14018KT 8000 3100 NSC 28/17 Q1019 NOSIG
15:30
I
27 °C 3,5 km - 140°   140° 19 kt METAR LFBO 191330Z AUTO 14019KT 8000 3500 NSC 27/17 Q1019 NOSIG
15:00
I
27 °C 3,7 km - 140°   140° 18 kt METAR LFBO 191300Z AUTO 14018KT 100V160 8000 3700 NSC 27/16 Q1020 NOSIG
14:30
V
27 °C 8 km - 150°   150° 17 kt METAR LFBO 191230Z AUTO 15017KT 8000 NSC 27/17 Q1020 NOSIG
14:00
I
27 °C 2,1 km - 130°   130° 17 kt METAR LFBO 191200Z AUTO 13017KT 6000 2100 NSC 27/17 Q1020 NOSIG
13:30
I
27 °C 2,1 km - 130°   130° 17 kt METAR LFBO 191130Z AUTO 13017KT 100V170 7000 2100 NSC 27/17 Q1020 NOSIG
13:00
I
26 °C 2,1 km - 140°   140° 19 kt METAR LFBO 191100Z AUTO 14019KT 7000 2100 NSC 26/17 Q1020 NOSIG
12:30
I
25 °C 2,3 km - 140°   140° 16 kt METAR LFBO 191030Z AUTO 14016KT 8000 2300 NSC 25/16 Q1021 NOSIG
12:00
I
25 °C 3,3 km - 130°   130° 18 kt METAR LFBO 191000Z AUTO 13018KT 9999 3300 FEW001 25/16 Q1021 NOSIG
11:30
M
24 °C 5 km - 140°   140° 16 kt METAR LFBO 190930Z AUTO 14016KT 110V170 5000 HZ FEW031 24/16 Q1021 NOSIG
11:00
V
24 °C 10 km+ - 140°   140° 17 kt METAR LFBO 190900Z AUTO 14017KT 9999 FEW001 24/17 Q1021 NOSIG
10:30
V
23 °C 10 km+ - 140°   140° 17 kt METAR LFBO 190830Z AUTO 14017KT 9999 SCT027 23/16 Q1021 NOSIG
10:00
M
22 °C 10 km+ 2.400 ft 130°   130° 18 kt METAR LFBO 190800Z AUTO 13018KT 090V160 9999 BKN024 BKN140 22/16 Q1021 NOSIG
09:30
M
21 °C 10 km+ 2.300 ft 130°   130° 18 kt METAR LFBO 190730Z AUTO 13018KT 9999 BKN023 21/16 Q1021 NOSIG
09:00
M
21 °C 10 km+ 2.100 ft 140°   140° 16 kt METAR LFBO 190700Z AUTO 14016KT 9999 BKN021 BKN150 21/16 Q1021 NOSIG
08:30
V
21 °C 10 km+ 15.000 ft 140°   140° 14 kt METAR LFBO 190630Z AUTO 14014KT 9999 FEW019 BKN150 21/16 Q1021 NOSIG
08:00
V
20 °C 10 km+ - 140°   140° 14 kt METAR LFBO 190600Z AUTO 14014KT CAVOK 20/16 Q1021 NOSIG
07:30
V
20 °C 10 km+ 17.000 ft 140°   140° 12 kt METAR LFBO 190530Z AUTO 14012KT 9999 FEW008 BKN170 20/16 Q1020 TEMPO BKN012
07:00
V
19 °C 10 km+ - 140°   140° 12 kt METAR LFBO 190500Z AUTO 14012KT 9999 FEW012 19/16 Q1020 TEMPO 27010KT BKN012
06:30
V
19 °C 10 km+ - 140°   140° 12 kt METAR LFBO 190430Z AUTO 14012KT CAVOK 19/16 Q1020 TEMPO 27010KT BKN012
06:00
V
19 °C 10 km+ - 140°   140° 14 kt METAR LFBO 190400Z AUTO 14014KT CAVOK 19/16 Q1019 TEMPO 27010KT BKN012
05:30
V
20 °C 10 km+ - 140°   140° 16 kt METAR LFBO 190330Z AUTO 14016KT CAVOK 20/16 Q1019 TEMPO 27010KT BKN012
05:00
V
20 °C 10 km+ - 140°   140° 15 kt METAR LFBO 190300Z AUTO 14015KT CAVOK 20/16 Q1019 TEMPO 27010KT BKN012
04:30
V
20 °C 10 km+ - 130°   130° 14 kt METAR LFBO 190230Z AUTO 13014KT 9999 FEW015 20/16 Q1019 TEMPO 27010KT BKN012
04:00
M
20 °C 10 km+ 1.500 ft 120°   120° 12 kt METAR LFBO 190200Z AUTO 12012KT 090V160 9999 BKN015 20/17 Q1019 TEMPO BKN012
03:30
V
20 °C 10 km+ - 130°   130° 15 kt METAR LFBO 190130Z AUTO 13015KT 9999 FEW017 20/16 Q1019 TEMPO BKN012
03:00
V
20 °C 10 km+ - 140°   140° 12 kt METAR LFBO 190100Z AUTO 14012KT CAVOK 20/15 Q1019 TEMPO BKN012
02:30
V
21 °C 10 km+ - 150°   150° 5 kt METAR LFBO 190030Z AUTO 15005KT 120V200 CAVOK 21/15 Q1019 TEMPO BKN012
02:00
V
21 °C 10 km+ - 210°   210° 5 kt METAR LFBO 190000Z AUTO 21005KT 160V240 CAVOK 21/15 Q1019 TEMPO BKN012
01:30
V
22 °C 10 km+ - 190°   190° 10 kt METAR LFBO 182330Z AUTO 19010KT 130V250 CAVOK 22/15 Q1019 TEMPO BKN012
01:00
V
22 °C 10 km+ - 140°   140° 11 kt METAR LFBO 182300Z AUTO 14011KT CAVOK 22/15 Q1017 NOSIG
00:30
V
22 °C 10 km+ - 140°   140° 12 kt METAR LFBO 182230Z AUTO 14012KT CAVOK 22/15 Q1017 NOSIG
00:00
V
23 °C 10 km+ - 130°   130° 12 kt METAR LFBO 182200Z AUTO 13012KT CAVOK 23/15 Q1017 NOSIG

18 de mayo de 2022

Hora Código Tiempo Temp. Visibilidad Nubes Viento METAR/SPECI
23:30
V
24 °C 10 km+ - 130°   130° 10 kt METAR LFBO 182130Z AUTO 13010KT 100V160 CAVOK 24/14 Q1017 NOSIG
23:00
V
25 °C 10 km+ - 130°   130° 11 kt METAR LFBO 182100Z AUTO 13011KT CAVOK 25/13 Q1017 TEMPO 14015G25KT
22:30
V
26 °C 10 km+ - 130°   130° 13 kt METAR LFBO 182030Z AUTO 13013KT CAVOK 26/13 Q1017 TEMPO 14015G25KT
22:00
V
26 °C 10 km+ - 130°   130° 13 kt METAR LFBO 182000Z AUTO 13013KT CAVOK 26/13 Q1016 TEMPO 14015G25KT
21:30
V
27 °C 10 km+ - 130°   130° 12 kt METAR LFBO 181930Z AUTO 13012KT CAVOK 27/13 Q1016 TEMPO 14015G25KT
21:00
V
28 °C 10 km+ - 130°   130° 15 kt METAR LFBO 181900Z AUTO 13015KT CAVOK 28/13 Q1016 TEMPO 14015G25KT
20:30
V
29 °C 10 km+ - 140°   140° 14 kt METAR LFBO 181830Z AUTO 14014KT CAVOK 29/13 Q1016 TEMPO 14015G25KT
20:00
V
29 °C 10 km+ - 140°   140° 16 kt METAR LFBO 181800Z AUTO 14016KT CAVOK 29/13 Q1016 TEMPO 14015G25KT
19:30
V
30 °C 10 km+ - 130°   130° 13 kt METAR LFBO 181730Z AUTO 13013KT 9999 FEW008 30/14 Q1015 TEMPO 14015G25KT
19:00
V
31 °C 10 km+ - 140°   140° 14 kt METAR LFBO 181700Z AUTO 14014KT 9999 FEW010 31/13 Q1015 TEMPO 14015G25KT
18:30
V
32 °C 10 km+ - 120°   120° 12 kt METAR LFBO 181630Z AUTO 12012KT 090V160 CAVOK 32/14 Q1015 TEMPO 14015G25KT
18:00
V
33 °C 10 km+ - 110°   110° 10 kt METAR LFBO 181600Z AUTO 11010KT CAVOK 33/13 Q1015 NOSIG
17:30
V
33 °C 10 km+ - 100°   100° 11 kt METAR LFBO 181530Z AUTO 10011KT 080V140 9999 FEW007 33/14 Q1015 NOSIG
17:00
V
33 °C 10 km+ - 130°   130° 9 kt METAR LFBO 181500Z AUTO 13009KT 070V160 CAVOK 33/14 Q1015 NOSIG
16:30
V
33 °C 10 km+ - 130°   130° 10 kt METAR LFBO 181430Z AUTO 13010KT 090V160 CAVOK 33/14 Q1016 NOSIG
16:00
V
33 °C 10 km+ - 150°   150° 11 kt METAR LFBO 181400Z AUTO 15011KT 120V180 9999 FEW008 33/14 Q1016 NOSIG
15:30
V
33 °C 10 km+ - 130°   130° 10 kt METAR LFBO 181330Z AUTO 13010KT 050V180 CAVOK 33/14 Q1016 NOSIG
15:00
V
32 °C 10 km+ - 110°   110° 10 kt METAR LFBO 181300Z AUTO 11010KT 070V160 9999 FEW009 32/14 Q1016 NOSIG
14:30
V
32 °C 10 km+ - Var   Var 9 kt METAR LFBO 181230Z AUTO VRB09KT CAVOK 32/15 Q1017 NOSIG
14:00
V
31 °C 10 km+ - Var   Var 4 kt METAR LFBO 181200Z AUTO VRB04KT CAVOK 31/15 Q1017 NOSIG
13:30
V
30 °C 10 km+ - 140°   140° 6 kt METAR LFBO 181130Z AUTO 14006KT 080V190 CAVOK 30/16 Q1017 NOSIG
13:00
V
29 °C 10 km+ - 130°   130° 6 kt METAR LFBO 181100Z AUTO 13006KT 060V180 9999 FEW008 29/15 Q1018 NOSIG
12:30
V
28 °C 10 km+ - 070°   070° 4 kt METAR LFBO 181030Z AUTO 07004KT 350V160 9999 FEW007 28/15 Q1018 NOSIG
12:00
V
28 °C 10 km+ - 070°   070° 4 kt METAR LFBO 181000Z AUTO 07004KT 010V140 9999 FEW008 28/15 Q1018 NOSIG
11:30
V
27 °C 10 km+ - Var   Var 3 kt METAR LFBO 180930Z AUTO VRB03KT 9999 FEW007 27/14 Q1019 NOSIG
11:00
V
26 °C 10 km+ - 060°   060° 3 kt METAR LFBO 180900Z AUTO 06003KT 320V100 CAVOK 26/15 Q1019 NOSIG
10:30
V
26 °C 10 km+ - Var   Var 3 kt METAR LFBO 180830Z AUTO VRB03KT 9999 FEW008 26/15 Q1019 NOSIG
10:00
V
25 °C 10 km+ - 090°   090° 4 kt METAR LFBO 180800Z AUTO 09004KT 050V140 CAVOK 25/14 Q1019 NOSIG
09:30
V
24 °C 10 km+ - Var   Var 2 kt METAR LFBO 180730Z AUTO VRB02KT CAVOK 24/14 Q1019 NOSIG
09:00
V
23 °C 10 km+ - 060°   060° 3 kt METAR LFBO 180700Z AUTO 06003KT 020V100 CAVOK 23/13 Q1019 NOSIG
08:30
V
23 °C 10 km+ - Var   Var 1 kt METAR LFBO 180630Z AUTO VRB01KT CAVOK 23/14 Q1019 NOSIG
08:00
V
21 °C 10 km+ - 040°   040° 3 kt METAR LFBO 180600Z AUTO 04003KT 360V080 CAVOK 21/14 Q1019 NOSIG
07:30
V
20 °C 10 km+ - Var   Var 3 kt METAR LFBO 180530Z AUTO VRB03KT CAVOK 20/14 Q1019 NOSIG
07:00
V
19 °C 10 km+ - Var   Var 1 kt METAR LFBO 180500Z AUTO VRB01KT 9999 FEW007 19/14 Q1019 NOSIG
06:30
V
19 °C 10 km+ - Var   Var 2 kt METAR LFBO 180430Z AUTO VRB02KT CAVOK 19/13 Q1019 NOSIG
06:00
V
18 °C 10 km+ - 200°   200° 4 kt METAR LFBO 180400Z AUTO 20004KT CAVOK 18/13 Q1019 TEMPO 32010KT
05:30
V
19 °C 10 km+ - 180°   180° 3 kt METAR LFBO 180330Z AUTO 18003KT CAVOK 19/13 Q1019 TEMPO 32010KT
05:00
V
20 °C 10 km+ - Var   Var 2 kt METAR LFBO 180300Z AUTO VRB02KT CAVOK 20/13 Q1020 NOSIG
04:30
V
21 °C 10 km+ - 280°   280° 4 kt METAR LFBO 180230Z AUTO 28004KT CAVOK 21/12 Q1020 NOSIG
04:00
V
21 °C 10 km+ - 240°   240° 4 kt METAR LFBO 180200Z AUTO 24004KT CAVOK 21/12 Q1020 BECMG 32010KT
03:30
V
21 °C 10 km+ - 240°   240° 3 kt METAR LFBO 180130Z AUTO 24003KT CAVOK 21/12 Q1020 BECMG 32010KT
03:00
V
21 °C 10 km+ - 230°   230° 4 kt METAR LFBO 180100Z AUTO 23004KT CAVOK 21/12 Q1020 BECMG 32010KT
02:30
V
22 °C 10 km+ - 260°   260° 5 kt METAR LFBO 180030Z AUTO 26005KT CAVOK 22/12 Q1020 BECMG 32010KT
02:00
V
22 °C 10 km+ - 250°   250° 6 kt METAR LFBO 180000Z AUTO 25006KT CAVOK 22/12 Q1020 BECMG 32010KT
01:30
V
22 °C 10 km+ - 310°   310° 4 kt METAR LFBO 172330Z AUTO 31004KT CAVOK 22/12 Q1020 NOSIG
01:00
V
22 °C 10 km+ - 310°   310° 5 kt METAR LFBO 172300Z AUTO 31005KT CAVOK 22/12 Q1020 NOSIG
00:30
V
23 °C 10 km+ - 310°   310° 6 kt METAR LFBO 172230Z AUTO 31006KT CAVOK 23/12 Q1020 NOSIG
00:00
V
24 °C 10 km+ - 320°   320° 8 kt METAR LFBO 172200Z AUTO 32008KT CAVOK 24/13 Q1019 NOSIG

17 de mayo de 2022

Hora Código Tiempo Temp. Visibilidad Nubes Viento METAR/SPECI
23:30
V
24 °C 10 km+ - 310°   310° 9 kt METAR LFBO 172130Z AUTO 31009KT CAVOK 24/14 Q1019 NOSIG
23:00
V
26 °C 10 km+ - 330°   330° 9 kt METAR LFBO 172100Z AUTO 33009KT CAVOK 26/13 Q1019 NOSIG
22:30
V
26 °C 10 km+ - 330°   330° 12 kt METAR LFBO 172030Z AUTO 33012KT CAVOK 26/14 Q1019 NOSIG
22:00
V
27 °C 10 km+ - 320°   320° 13 kt METAR LFBO 172000Z AUTO 32013KT CAVOK 27/15 Q1018 NOSIG
21:30
V
27 °C 10 km+ - Var   Var 3 kt METAR LFBO 171930Z AUTO VRB03KT CAVOK 27/14 Q1017 NOSIG
21:00
V
28 °C 10 km+ - 200°   200° 4 kt METAR LFBO 171900Z AUTO 20004KT CAVOK 28/14 Q1017 NOSIG
20:30
V
29 °C 10 km+ - 200°   200° 6 kt METAR LFBO 171830Z AUTO 20006KT 180V240 CAVOK 29/14 Q1017 NOSIG
20:00
V
30 °C 10 km+ - 200°   200° 5 kt METAR LFBO 171800Z AUTO 20005KT CAVOK 30/14 Q1017 NOSIG
19:30
V
30 °C 10 km+ - 200°   200° 5 kt METAR LFBO 171730Z AUTO 20005KT 160V250 CAVOK 30/14 Q1016 NOSIG
19:00
V
31 °C 10 km+ - 200°   200° 8 kt METAR LFBO 171700Z AUTO 20008KT 9999 FEW008 31/14 Q1016 NOSIG
18:30
V
31 °C 10 km+ - Var   Var 5 kt METAR LFBO 171630Z AUTO VRB05KT CAVOK 31/15 Q1016 NOSIG
18:00
V
31 °C 10 km+ - 160°   160° 5 kt METAR LFBO 171600Z AUTO 16005KT 110V240 CAVOK 31/15 Q1016 NOSIG
17:30
V
32 °C 10 km+ - 180°   180° 3 kt METAR LFBO 171530Z AUTO 18003KT 140V270 9999 FEW007 32/15 Q1016 NOSIG
17:00
V
31 °C 10 km+ - Var   Var 6 kt METAR LFBO 171500Z AUTO VRB06KT 9999 FEW010 31/14 Q1016 NOSIG
Datos más antiguos

Descarga nuestra aplicación

Acceso fácil a todo el tiempo de la aviación en tu teléfono móvil y tableta.
Con muchas funciones no disponibles en el sitio web, como la compatibilidad sin conexión y una lista personal de aeropuertos.

Nosotros y terceros seguimos tu comportamiento en Internet en nuestro sitio web con cookies. Si continúas, asumimos que estás de acuerdo con nuestra política de cookies. Más información